Time;durP1;ratioP1;P1;durP2;ratioP2;P2;SDS_P1;SDS_P2;PMS_P1;PMS_P2;Temp;Humidity;BMP_temperature;BMP_pressure;BME280_temperature;BME280_humidity;BME280_pressure;Samples;Min_cycle;Max_cycle;Signal;HPM_P1;HPM_P2
2021/11/30 00:01:21;;;;;;;71.55;45.80;;;;;;;;;;5013304;28;20151;-73
2021/11/30 00:03:48;;;;;;;76.95;52.58;;;;;;;;;;5013948;28;20603;-73
2021/11/30 00:06:14;;;;;;;125.63;77.20;;;;;;;;;;5017594;28;20058;-73
2021/11/30 00:08:41;;;;;;;71.13;45.20;;;;;;;;;;5013233;28;20528;-73
2021/11/30 00:11:09;;;;;;;78.78;52.65;;;;;;;;;;5015437;28;20818;-73
2021/11/30 00:13:36;;;;;;;126.32;77.65;;;;;;;;;;5014599;28;20049;-73
2021/11/30 00:16:03;;;;;;;73.80;46.60;;;;;;;;;;5015365;28;20065;-73
2021/11/30 00:18:34;;;;;;;158.57;99.28;;;;;;;;;;5014160;28;20052;-73
2021/11/30 00:21:01;;;;;;;106.95;68.45;;;;;;;;;;5020264;28;20110;-73
2021/11/30 00:23:27;;;;;;;106.13;69.75;;;;;;;;;;5015051;28;20069;-74
2021/11/30 00:25:54;;;;;;;110.93;71.00;;;;;;;;;;5013440;28;20065;-73
2021/11/30 00:28:20;;;;;;;162.13;100.93;;;;;;;;;;5012526;28;20060;-73
2021/11/30 00:30:47;;;;;;;91.63;57.38;;;;;;;;;;5018087;28;20057;-73
2021/11/30 00:33:13;;;;;;;104.75;60.70;;;;;;;;;;5013343;28;20075;-73
2021/11/30 00:35:40;;;;;;;90.47;54.83;;;;;;;;;;5015326;28;20073;-74
2021/11/30 00:38:08;;;;;;;151.75;88.22;;;;;;;;;;5014916;28;20057;-74
2021/11/30 00:40:36;;;;;;;96.43;62.13;;;;;;;;;;5015815;28;20065;-74
2021/11/30 00:43:03;;;;;;;92.85;54.10;;;;;;;;;;4996967;28;20077;-74
2021/11/30 00:45:37;;;;;;;127.07;80.10;;;;;;;;;;5014840;28;20072;-74
2021/11/30 00:48:10;;;;;;;146.30;90.22;;;;;;;;;;5013706;28;20069;-74
2021/11/30 00:50:39;;;;;;;148.23;92.25;;;;;;;;;;5018877;28;20053;-74
2021/11/30 00:53:05;;;;;;;159.77;96.32;;;;;;;;;;5016802;28;20068;-74
2021/11/30 00:55:32;;;;;;;77.57;50.30;;;;;;;;;;5015674;28;20431;-73
2021/11/30 00:57:58;;;;;;;89.03;56.80;;;;;;;;;;5014196;28;20135;-73
2021/11/30 01:00:25;;;;;;;91.90;58.88;;;;;;;;;;5016769;28;20050;-73
2021/11/30 01:02:51;;;;;;;74.45;49.95;;;;;;;;;;5010721;28;20338;-73
2021/11/30 01:05:17;;;;;;;93.30;57.92;;;;;;;;;;5014344;28;20033;-73
2021/11/30 01:07:44;;;;;;;124.18;79.95;;;;;;;;;;5014350;28;20060;-73
2021/11/30 01:10:12;;;;;;;148.52;89.18;;;;;;;;;;5012907;28;20127;-75
2021/11/30 01:12:39;;;;;;;91.78;59.38;;;;;;;;;;5015219;28;20671;-74
2021/11/30 01:15:08;;;;;;;60.90;42.00;;;;;;;;;;5013791;28;20065;-74
2021/11/30 01:17:34;;;;;;;103.85;66.82;;;;;;;;;;5014200;28;20065;-74
2021/11/30 01:20:00;;;;;;;112.53;67.32;;;;;;;;;;5016553;28;20095;-74
2021/11/30 01:22:27;;;;;;;82.45;53.25;;;;;;;;;;5014118;28;20061;-75
2021/11/30 01:24:53;;;;;;;129.43;76.88;;;;;;;;;;5014612;28;20049;-74
2021/11/30 01:27:20;;;;;;;133.45;82.00;;;;;;;;;;5008813;28;20057;-73
2021/11/30 01:29:46;;;;;;;123.57;78.20;;;;;;;;;;5015080;28;20404;-74
2021/11/30 01:32:12;;;;;;;105.22;64.15;;;;;;;;;;5015447;28;20064;-73
2021/11/30 01:34:39;;;;;;;56.40;39.33;;;;;;;;;;5014247;28;20089;-73
2021/11/30 01:37:05;;;;;;;132.50;82.53;;;;;;;;;;5016500;28;20056;-73
2021/11/30 01:39:32;;;;;;;94.22;57.30;;;;;;;;;;5011182;28;20061;-73
2021/11/30 01:41:59;;;;;;;139.52;86.65;;;;;;;;;;5013029;28;20099;-73
2021/11/30 01:44:50;;;;;;;115.15;70.30;;;;;;;;;;5013365;28;20096;-73
2021/11/30 01:49:48;;;;;;;104.55;65.97;;;;;;;;;;5005422;28;20559;-73
2021/11/30 01:52:15;;;;;;;98.53;61.35;;;;;;;;;;5011389;28;20103;-73
2021/11/30 01:54:43;;;;;;;126.53;75.63;;;;;;;;;;5013180;28;20107;-73
2021/11/30 01:57:10;;;;;;;104.68;65.03;;;;;;;;;;5013236;28;20805;-73
2021/11/30 01:59:37;;;;;;;113.13;71.78;;;;;;;;;;4990698;28;20077;-73
2021/11/30 02:02:03;;;;;;;118.35;70.47;;;;;;;;;;4988055;28;20140;-74
2021/11/30 02:04:33;;;;;;;163.85;99.53;;;;;;;;;;4998102;28;20514;-73
2021/11/30 02:06:59;;;;;;;145.20;87.97;;;;;;;;;;4986270;28;20073;-73
2021/11/30 02:09:27;;;;;;;165.50;101.53;;;;;;;;;;4995149;28;20445;-75
2021/11/30 02:11:54;;;;;;;129.70;77.40;;;;;;;;;;4994228;28;21409;-73
2021/11/30 02:14:20;;;;;;;80.30;54.65;;;;;;;;;;4993503;28;20155;-75
2021/11/30 02:16:48;;;;;;;128.93;79.93;;;;;;;;;;5007235;28;20066;-74
2021/11/30 02:19:15;;;;;;;165.40;102.57;;;;;;;;;;4991203;28;20039;-74
2021/11/30 02:21:42;;;;;;;143.65;86.10;;;;;;;;;;4993914;28;20038;-73
2021/11/30 02:24:09;;;;;;;131.35;80.10;;;;;;;;;;4988072;28;20126;-75
2021/11/30 02:26:36;;;;;;;136.13;84.85;;;;;;;;;;4994447;28;20136;-75
2021/11/30 02:29:07;;;;;;;165.00;98.88;;;;;;;;;;5008659;28;20089;-74
2021/11/30 02:31:45;;;;;;;110.78;70.68;;;;;;;;;;4992188;28;20646;-73
2021/11/30 02:34:11;;;;;;;136.10;83.68;;;;;;;;;;4993201;28;20573;-73
2021/11/30 02:39:09;;;;;;;128.80;82.30;;;;;;;;;;4992429;28;20058;-73
2021/11/30 02:41:37;;;;;;;116.55;73.53;;;;;;;;;;4992777;28;20092;-73
2021/11/30 02:44:04;;;;;;;115.22;73.10;;;;;;;;;;4981889;28;20046;-74
2021/11/30 02:46:47;;;;;;;149.82;94.05;;;;;;;;;;4995767;28;20061;-74
2021/11/30 02:49:15;;;;;;;136.45;87.45;;;;;;;;;;4991676;28;20274;-75
2021/11/30 02:51:45;;;;;;;119.45;76.47;;;;;;;;;;4993132;28;20054;-74
2021/11/30 02:54:13;;;;;;;101.97;63.65;;;;;;;;;;4994695;28;20066;-74
2021/11/30 02:56:40;;;;;;;150.52;95.35;;;;;;;;;;4983804;28;20496;-73
2021/11/30 02:59:08;;;;;;;105.72;67.05;;;;;;;;;;4992680;28;20185;-73
2021/11/30 03:01:34;;;;;;;110.65;69.20;;;;;;;;;;5015720;28;20069;-74
2021/11/30 03:04:08;;;;;;;104.82;68.18;;;;;;;;;;5016821;28;20523;-73
2021/11/30 03:06:34;;;;;;;142.93;91.65;;;;;;;;;;5020054;28;20111;-73
2021/11/30 03:09:01;;;;;;;119.78;74.13;;;;;;;;;;5013600;28;20064;-72
2021/11/30 03:11:27;;;;;;;167.05;103.03;;;;;;;;;;5018504;28;20069;-74
2021/11/30 03:13:54;;;;;;;96.15;59.55;;;;;;;;;;5019958;28;20061;-75
2021/11/30 03:16:21;;;;;;;131.00;78.68;;;;;;;;;;5015950;28;20074;-73
2021/11/30 03:18:47;;;;;;;144.68;91.00;;;;;;;;;;5006578;28;20123;-74
2021/11/30 03:21:14;;;;;;;154.20;93.70;;;;;;;;;;5018760;28;20148;-74
2021/11/30 03:23:42;;;;;;;118.78;70.93;;;;;;;;;;5016131;28;20710;-74
2021/11/30 03:26:08;;;;;;;146.70;94.07;;;;;;;;;;5015979;28;20099;-74
2021/11/30 03:28:35;;;;;;;150.02;92.78;;;;;;;;;;5007942;28;20453;-74
2021/11/30 03:31:07;;;;;;;112.38;71.55;;;;;;;;;;5011400;28;20060;-74
2021/11/30 03:36:19;;;;;;;120.95;79.15;;;;;;;;;;5017050;28;20642;-74
2021/11/30 03:38:46;;;;;;;126.13;78.50;;;;;;;;;;5016201;28;20676;-74
2021/11/30 03:41:13;;;;;;;126.55;78.20;;;;;;;;;;5015381;28;20061;-74
2021/11/30 03:43:39;;;;;;;140.75;85.65;;;;;;;;;;5013559;28;20080;-74
2021/11/30 03:46:06;;;;;;;146.13;89.68;;;;;;;;;;5017973;28;20054;-74
2021/11/30 03:48:33;;;;;;;106.78;70.28;;;;;;;;;;5017305;28;20107;-73
2021/11/30 03:50:59;;;;;;;142.25;88.07;;;;;;;;;;5019277;28;20061;-73
2021/11/30 03:53:25;;;;;;;99.07;61.22;;;;;;;;;;5016160;28;20064;-73
2021/11/30 03:55:52;;;;;;;109.82;65.32;;;;;;;;;;5008974;28;21194;-73
2021/11/30 03:58:18;;;;;;;111.43;68.55;;;;;;;;;;5015716;28;20085;-73
2021/11/30 04:00:45;;;;;;;101.13;62.95;;;;;;;;;;5019557;28;20092;-73
2021/11/30 04:03:11;;;;;;;59.75;40.63;;;;;;;;;;5016279;28;20115;-74
2021/11/30 04:05:38;;;;;;;111.97;74.38;;;;;;;;;;5014403;28;20084;-74
2021/11/30 04:08:04;;;;;;;153.90;94.80;;;;;;;;;;5017115;28;20050;-73
2021/11/30 04:10:31;;;;;;;126.57;77.57;;;;;;;;;;5013653;28;20528;-74
2021/11/30 04:12:57;;;;;;;110.57;64.65;;;;;;;;;;4993203;28;20139;-73
2021/11/30 04:15:24;;;;;;;116.93;75.30;;;;;;;;;;5016230;28;20088;-74
2021/11/30 04:17:50;;;;;;;142.80;87.32;;;;;;;;;;5017208;28;20053;-73
2021/11/30 04:20:19;;;;;;;144.52;93.40;;;;;;;;;;5019385;28;20025;-74
2021/11/30 04:22:45;;;;;;;192.48;116.72;;;;;;;;;;5010676;28;20336;-73
2021/11/30 04:25:12;;;;;;;92.25;60.20;;;;;;;;;;5015375;28;20077;-73
2021/11/30 04:27:39;;;;;;;102.60;65.22;;;;;;;;;;5014512;28;20143;-73
2021/11/30 04:30:07;;;;;;;168.15;103.10;;;;;;;;;;4989563;28;20034;-73
2021/11/30 04:32:33;;;;;;;142.80;87.45;;;;;;;;;;5007105;28;20501;-74
2021/11/30 04:35:00;;;;;;;108.18;65.32;;;;;;;;;;4990642;28;20050;-75
2021/11/30 04:37:27;;;;;;;94.53;60.70;;;;;;;;;;5006347;28;20107;-74
2021/11/30 04:39:53;;;;;;;117.55;76.03;;;;;;;;;;5009363;28;22076;-74
2021/11/30 04:42:26;;;;;;;136.70;81.07;;;;;;;;;;5006520;28;20124;-74
2021/11/30 04:45:06;;;;;;;129.07;77.40;;;;;;;;;;5006373;28;20131;-75
2021/11/30 04:47:36;;;;;;;122.57;73.93;;;;;;;;;;5002168;28;20477;-76
2021/11/30 04:50:05;;;;;;;92.50;55.97;;;;;;;;;;5005450;28;20068;-75
2021/11/30 04:52:32;;;;;;;108.80;67.75;;;;;;;;;;5009871;28;20029;-75
2021/11/30 04:54:59;;;;;;;116.50;74.00;;;;;;;;;;5007889;28;20053;-75
2021/11/30 04:57:26;;;;;;;123.28;75.90;;;;;;;;;;5010164;28;20505;-75
2021/11/30 04:59:53;;;;;;;123.43;75.95;;;;;;;;;;5007526;28;20550;-76
2021/11/30 05:02:20;;;;;;;81.53;52.17;;;;;;;;;;5006832;28;20061;-75
2021/11/30 05:04:52;;;;;;;108.63;71.07;;;;;;;;;;5006646;28;20739;-75
2021/11/30 05:07:19;;;;;;;90.10;56.25;;;;;;;;;;5007510;28;20164;-74
2021/11/30 05:09:45;;;;;;;117.50;72.60;;;;;;;;;;5007501;28;20058;-75
2021/11/30 05:12:12;;;;;;;98.90;63.58;;;;;;;;;;5007448;28;20045;-75
2021/11/30 05:14:38;;;;;;;106.82;61.83;;;;;;;;;;5003462;28;20127;-76
2021/11/30 05:17:05;;;;;;;78.70;49.30;;;;;;;;;;5009688;28;20066;-76
2021/11/30 05:19:31;;;;;;;98.22;57.65;;;;;;;;;;5008688;28;20053;-74
2021/11/30 05:21:58;;;;;;;109.20;68.15;;;;;;;;;;5007977;28;20049;-74
2021/11/30 05:24:25;;;;;;;87.28;55.20;;;;;;;;;;5003128;28;20069;-74
2021/11/30 05:26:54;;;;;;;92.07;57.35;;;;;;;;;;5005819;28;20572;-76
2021/11/30 05:29:20;;;;;;;103.47;66.43;;;;;;;;;;5012223;28;20066;-73
2021/11/30 05:31:47;;;;;;;77.03;45.33;;;;;;;;;;5011917;28;21498;-75
2021/11/30 05:34:13;;;;;;;77.28;49.35;;;;;;;;;;5017597;28;20072;-74
2021/11/30 05:36:40;;;;;;;99.95;60.08;;;;;;;;;;5013342;28;20080;-75
2021/11/30 05:39:06;;;;;;;59.10;37.83;;;;;;;;;;5012212;28;20073;-76
2021/11/30 05:41:32;;;;;;;68.50;41.83;;;;;;;;;;5011742;28;20806;-76
2021/11/30 05:43:59;;;;;;;80.90;51.10;;;;;;;;;;5012951;28;20069;-77
2021/11/30 05:46:26;;;;;;;68.05;43.65;;;;;;;;;;5015713;28;20133;-76
2021/11/30 05:48:52;;;;;;;54.85;34.65;;;;;;;;;;5017516;28;20053;-76
2021/11/30 05:51:19;;;;;;;60.60;39.35;;;;;;;;;;5016515;28;20075;-77
2021/11/30 05:53:45;;;;;;;68.82;45.13;;;;;;;;;;5011771;28;20064;-76
2021/11/30 05:56:12;;;;;;;61.42;38.70;;;;;;;;;;5007542;28;20061;-76
2021/11/30 05:58:41;;;;;;;69.63;45.35;;;;;;;;;;5012397;28;20413;-76
2021/11/30 06:01:10;;;;;;;44.53;30.10;;;;;;;;;;5010359;28;20069;-75
2021/11/30 06:06:14;;;;;;;61.28;38.38;;;;;;;;;;5012397;28;20410;-74
2021/11/30 06:08:40;;;;;;;71.20;43.83;;;;;;;;;;5012606;28;20064;-75
2021/11/30 06:11:06;;;;;;;61.83;39.03;;;;;;;;;;5015045;28;20105;-75
2021/11/30 06:13:33;;;;;;;53.53;35.40;;;;;;;;;;5003955;28;20159;-75
2021/11/30 06:15:59;;;;;;;64.07;40.47;;;;;;;;;;5016414;28;20057;-74
2021/11/30 06:18:26;;;;;;;62.65;39.72;;;;;;;;;;5016828;28;20458;-75
2021/11/30 06:20:52;;;;;;;57.65;37.28;;;;;;;;;;5015211;28;20874;-75
2021/11/30 06:23:18;;;;;;;67.95;44.00;;;;;;;;;;5013438;28;20117;-74
2021/11/30 06:25:45;;;;;;;60.40;38.08;;;;;;;;;;5017137;28;20078;-74
2021/11/30 06:28:11;;;;;;;65.05;39.67;;;;;;;;;;4997489;28;20069;-75
2021/11/30 06:30:38;;;;;;;43.70;28.13;;;;;;;;;;5018116;28;20065;-75
2021/11/30 06:33:04;;;;;;;56.17;36.33;;;;;;;;;;5018560;28;20590;-75
2021/11/30 06:35:31;;;;;;;54.13;33.08;;;;;;;;;;5014193;28;20061;-75
2021/11/30 06:37:58;;;;;;;50.83;33.33;;;;;;;;;;5014753;28;20037;-75
2021/11/30 06:40:24;;;;;;;45.50;28.90;;;;;;;;;;5013789;28;20778;-77
2021/11/30 06:42:50;;;;;;;48.45;31.23;;;;;;;;;;5015007;28;20227;-76
2021/11/30 06:45:17;;;;;;;51.90;31.92;;;;;;;;;;5016433;28;20061;-74
2021/11/30 06:47:43;;;;;;;46.10;27.67;;;;;;;;;;5011737;28;20515;-75
2021/11/30 06:50:11;;;;;;;42.05;27.83;;;;;;;;;;5013528;28;20508;-75
2021/11/30 06:52:38;;;;;;;36.58;22.48;;;;;;;;;;5019350;28;20057;-76
2021/11/30 06:55:09;;;;;;;34.88;21.65;;;;;;;;;;5012967;28;20065;-76
2021/11/30 06:57:35;;;;;;;40.40;26.77;;;;;;;;;;5009110;28;20468;-76
2021/11/30 07:00:05;;;;;;;35.90;23.10;;;;;;;;;;5007937;28;20535;-74
2021/11/30 07:02:35;;;;;;;34.35;21.73;;;;;;;;;;5008280;28;20068;-75
2021/11/30 07:05:12;;;;;;;44.10;29.42;;;;;;;;;;5007094;28;20096;-75
2021/11/30 07:13:04;;;;;;;52.60;35.38;;;;;;;;;;4985693;28;20108;-76
2021/11/30 07:15:30;;;;;;;51.17;32.13;;;;;;;;;;5008038;28;20057;-74
2021/11/30 07:17:58;;;;;;;47.30;28.33;;;;;;;;;;5009573;28;20068;-75
2021/11/30 07:20:25;;;;;;;60.45;38.67;;;;;;;;;;5007695;28;20112;-74
2021/11/30 07:22:55;;;;;;;57.25;37.00;;;;;;;;;;5006401;28;20057;-76
2021/11/30 07:25:22;;;;;;;51.28;32.65;;;;;;;;;;5007522;28;20054;-74
2021/11/30 07:27:48;;;;;;;59.22;35.80;;;;;;;;;;5004178;28;20057;-74
2021/11/30 07:30:15;;;;;;;71.53;41.70;;;;;;;;;;5005769;28;20104;-74
2021/11/30 07:32:41;;;;;;;40.55;27.90;;;;;;;;;;5006889;28;20053;-74
2021/11/30 07:35:08;;;;;;;59.60;39.58;;;;;;;;;;4964170;28;21072;-75
2021/11/30 07:37:34;;;;;;;50.13;32.88;;;;;;;;;;5019593;28;20167;-74
2021/11/30 07:40:01;;;;;;;59.53;36.67;;;;;;;;;;5010538;28;20054;-74
2021/11/30 07:42:30;;;;;;;62.30;39.47;;;;;;;;;;5004546;28;20116;-75
2021/11/30 07:44:58;;;;;;;72.72;44.05;;;;;;;;;;5009946;28;20458;-74
2021/11/30 07:47:24;;;;;;;69.47;43.08;;;;;;;;;;5003711;28;20054;-74
2021/11/30 07:49:50;;;;;;;54.60;35.80;;;;;;;;;;4999711;28;20084;-74
2021/11/30 07:52:17;;;;;;;45.97;29.65;;;;;;;;;;5008364;28;20065;-74
2021/11/30 07:54:45;;;;;;;33.05;21.70;;;;;;;;;;5007441;28;20064;-74
2021/11/30 07:57:12;;;;;;;62.70;39.53;;;;;;;;;;5006951;28;20069;-74
2021/11/30 07:59:39;;;;;;;54.30;33.45;;;;;;;;;;5010364;28;20478;-74
2021/11/30 08:02:06;;;;;;;52.25;33.30;;;;;;;;;;5015319;28;20432;-74
2021/11/30 08:04:32;;;;;;;78.60;45.53;;;;;;;;;;5006779;28;20097;-75
2021/11/30 08:06:59;;;;;;;53.97;32.30;;;;;;;;;;5008977;28;21944;-74
2021/11/30 08:09:33;;;;;;;49.90;29.88;;;;;;;;;;5009013;28;20065;-73
2021/11/30 08:11:59;;;;;;;44.13;27.65;;;;;;;;;;5005382;28;22419;-74
2021/11/30 08:14:26;;;;;;;46.50;29.85;;;;;;;;;;4987926;28;20204;-74
2021/11/30 08:16:52;;;;;;;28.35;19.13;;;;;;;;;;5006200;28;20053;-74
2021/11/30 08:19:20;;;;;;;59.90;37.00;;;;;;;;;;5009729;28;20490;-75
2021/11/30 08:21:47;;;;;;;66.47;42.55;;;;;;;;;;5006408;28;20269;-74
2021/11/30 08:24:13;;;;;;;57.20;37.13;;;;;;;;;;5010026;28;20124;-75
2021/11/30 08:26:40;;;;;;;65.40;39.83;;;;;;;;;;5007766;28;20569;-77
2021/11/30 08:29:06;;;;;;;56.92;35.45;;;;;;;;;;5006572;28;20706;-75
2021/11/30 08:31:33;;;;;;;49.28;32.53;;;;;;;;;;5010533;28;20070;-74
2021/11/30 08:33:59;;;;;;;47.50;28.08;;;;;;;;;;5009117;28;21012;-74
2021/11/30 08:36:27;;;;;;;34.47;23.33;;;;;;;;;;5009341;28;20072;-75
2021/11/30 08:38:53;;;;;;;66.15;43.33;;;;;;;;;;5008282;28;20119;-74
2021/11/30 08:41:21;;;;;;;67.65;41.72;;;;;;;;;;5012674;28;20057;-74
2021/11/30 08:43:48;;;;;;;84.97;50.75;;;;;;;;;;4993120;28;22567;-74
2021/11/30 08:46:14;;;;;;;61.58;39.42;;;;;;;;;;5006993;28;20069;-74
2021/11/30 08:48:41;;;;;;;33.17;23.63;;;;;;;;;;5006762;28;20487;-75
2021/11/30 08:51:07;;;;;;;70.82;43.58;;;;;;;;;;5011354;28;20049;-74
2021/11/30 08:53:35;;;;;;;35.50;24.35;;;;;;;;;;4997104;28;20116;-74
2021/11/30 08:56:06;;;;;;;36.65;24.55;;;;;;;;;;5010013;28;20065;-73
2021/11/30 08:58:34;;;;;;;73.20;44.35;;;;;;;;;;5006521;28;20054;-74
2021/11/30 09:01:01;;;;;;;64.15;40.78;;;;;;;;;;5008267;28;20074;-74
2021/11/30 09:03:28;;;;;;;64.68;38.45;;;;;;;;;;5020647;28;20067;-75
2021/11/30 09:05:55;;;;;;;61.20;40.38;;;;;;;;;;5010057;28;20163;-74
2021/11/30 09:08:21;;;;;;;68.82;42.40;;;;;;;;;;5005806;28;20467;-76
2021/11/30 09:10:47;;;;;;;58.38;37.55;;;;;;;;;;5006774;28;21724;-75
2021/11/30 09:13:14;;;;;;;96.70;55.50;;;;;;;;;;5006824;28;20062;-75
2021/11/30 09:15:40;;;;;;;80.60;50.47;;;;;;;;;;5002562;28;20072;-75
2021/11/30 09:18:07;;;;;;;34.58;23.80;;;;;;;;;;5000338;28;20062;-76
2021/11/30 09:20:33;;;;;;;76.70;48.03;;;;;;;;;;5011979;28;20050;-75
2021/11/30 09:23:00;;;;;;;62.05;40.30;;;;;;;;;;5005173;28;20096;-73
2021/11/30 09:25:27;;;;;;;62.25;40.17;;;;;;;;;;5007957;28;20447;-74
2021/11/30 09:27:53;;;;;;;105.25;63.88;;;;;;;;;;5003166;28;21543;-74
2021/11/30 09:30:22;;;;;;;58.97;37.53;;;;;;;;;;5007749;28;20474;-76
2021/11/30 09:32:48;;;;;;;96.95;57.95;;;;;;;;;;5000213;28;20108;-74
2021/11/30 09:35:18;;;;;;;83.30;49.70;;;;;;;;;;5006842;28;20509;-75
2021/11/30 09:37:47;;;;;;;100.68;64.63;;;;;;;;;;5004524;28;20561;-75
2021/11/30 09:40:15;;;;;;;75.63;48.17;;;;;;;;;;5005519;28;20065;-73
2021/11/30 09:42:47;;;;;;;81.93;50.80;;;;;;;;;;5005090;28;20065;-74
2021/11/30 09:45:13;;;;;;;96.22;57.58;;;;;;;;;;5004107;28;20533;-75
2021/11/30 09:47:41;;;;;;;74.90;45.92;;;;;;;;;;5010790;28;20559;-74
2021/11/30 09:50:09;;;;;;;87.25;50.58;;;;;;;;;;5011273;28;20515;-74
2021/11/30 09:52:36;;;;;;;82.00;51.38;;;;;;;;;;5013604;28;20466;-73
2021/11/30 09:55:03;;;;;;;92.25;53.67;;;;;;;;;;5008491;28;20061;-76
2021/11/30 09:57:29;;;;;;;44.00;28.83;;;;;;;;;;5004438;28;20103;-74
2021/11/30 09:59:56;;;;;;;54.90;33.53;;;;;;;;;;5013297;28;20143;-75
2021/11/30 10:02:22;;;;;;;54.22;35.60;;;;;;;;;;5013874;28;20037;-74
2021/11/30 10:04:49;;;;;;;63.42;38.28;;;;;;;;;;5017500;28;20073;-72
2021/11/30 10:07:15;;;;;;;60.45;37.75;;;;;;;;;;5014531;28;20049;-75
2021/11/30 10:09:42;;;;;;;66.13;42.00;;;;;;;;;;5013901;28;20065;-74
2021/11/30 10:12:09;;;;;;;61.15;37.80;;;;;;;;;;5010847;28;20604;-75
2021/11/30 10:14:37;;;;;;;56.00;33.53;;;;;;;;;;5009928;28;20609;-76
2021/11/30 10:17:17;;;;;;;76.50;46.80;;;;;;;;;;5016794;28;20061;-74
2021/11/30 10:19:50;;;;;;;48.42;32.22;;;;;;;;;;5013109;28;20026;-74
2021/11/30 10:22:33;;;;;;;85.97;52.10;;;;;;;;;;5016602;28;20034;-75
2021/11/30 10:25:13;;;;;;;83.18;48.42;;;;;;;;;;5013877;28;20359;-75
2021/11/30 10:27:43;;;;;;;50.25;32.28;;;;;;;;;;5016350;28;20029;-76
2021/11/30 10:30:11;;;;;;;63.28;39.70;;;;;;;;;;5031172;28;20034;-76
2021/11/30 10:32:39;;;;;;;67.80;40.20;;;;;;;;;;5028162;28;20026;-76
2021/11/30 10:35:06;;;;;;;59.95;35.55;;;;;;;;;;5025768;28;20034;-75
2021/11/30 10:37:33;;;;;;;78.45;49.13;;;;;;;;;;4999911;28;20123;-75
2021/11/30 10:40:08;;;;;;;48.95;32.00;;;;;;;;;;4996237;28;20092;-74
2021/11/30 10:42:34;;;;;;;79.80;46.08;;;;;;;;;;5008275;28;20058;-74
2021/11/30 10:45:00;;;;;;;62.85;38.60;;;;;;;;;;5013543;28;20065;-74
2021/11/30 10:47:28;;;;;;;56.20;33.53;;;;;;;;;;5010888;28;20326;-74
2021/11/30 10:49:59;;;;;;;80.78;47.83;;;;;;;;;;5012171;28;20065;-74
2021/11/30 10:52:27;;;;;;;77.05;46.60;;;;;;;;;;5014323;28;20427;-74
2021/11/30 10:55:03;;;;;;;77.45;45.78;;;;;;;;;;5012654;28;20092;-74
2021/11/30 10:57:32;;;;;;;69.75;38.35;;;;;;;;;;5011114;28;20065;-75
2021/11/30 11:00:15;;;;;;;87.93;54.15;;;;;;;;;;5013795;28;20092;-74
2021/11/30 11:02:48;;;;;;;84.00;50.63;;;;;;;;;;5009613;28;20057;-74
2021/11/30 11:05:22;;;;;;;97.55;58.10;;;;;;;;;;5011912;28;20552;-74
2021/11/30 11:08:02;;;;;;;98.63;58.47;;;;;;;;;;5011333;28;20179;-74
2021/11/30 11:10:29;;;;;;;75.60;49.00;;;;;;;;;;5011922;28;20061;-75
2021/11/30 11:12:55;;;;;;;107.10;65.68;;;;;;;;;;5005533;28;20049;-75
2021/11/30 11:15:41;;;;;;;62.17;38.17;;;;;;;;;;4990497;28;20058;-75
2021/11/30 11:18:20;;;;;;;99.43;60.40;;;;;;;;;;5008294;28;20061;-75
2021/11/30 11:20:47;;;;;;;92.05;55.67;;;;;;;;;;5009518;28;20126;-75
2021/11/30 11:23:23;;;;;;;93.45;57.70;;;;;;;;;;5012241;28;20054;-75
2021/11/30 11:25:53;;;;;;;78.88;48.13;;;;;;;;;;5005547;28;20580;-74
2021/11/30 11:28:23;;;;;;;84.68;47.92;;;;;;;;;;5016291;28;20053;-75
2021/11/30 11:30:50;;;;;;;78.63;48.80;;;;;;;;;;5016114;28;20066;-75
2021/11/30 11:33:16;;;;;;;110.15;67.13;;;;;;;;;;5003309;28;20074;-75
2021/11/30 11:35:43;;;;;;;100.47;61.53;;;;;;;;;;4965826;28;20037;-75
2021/11/30 11:38:10;;;;;;;105.05;63.97;;;;;;;;;;5016634;28;20053;-75
2021/11/30 11:40:37;;;;;;;98.32;55.63;;;;;;;;;;5000082;28;20065;-76
2021/11/30 11:43:04;;;;;;;95.30;60.38;;;;;;;;;;5008823;28;20115;-75
2021/11/30 11:45:30;;;;;;;107.13;65.68;;;;;;;;;;5008911;28;20211;-75
2021/11/30 11:48:04;;;;;;;129.43;78.97;;;;;;;;;;5011223;28;20050;-75
2021/11/30 11:50:39;;;;;;;58.42;36.33;;;;;;;;;;5006230;28;20219;-74
2021/11/30 11:53:21;;;;;;;86.60;50.88;;;;;;;;;;5008681;28;20403;-75
2021/11/30 11:56:06;;;;;;;117.85;67.50;;;;;;;;;;5006287;28;20112;-76
2021/11/30 11:58:33;;;;;;;74.95;45.95;;;;;;;;;;4981086;28;20061;-75
2021/11/30 12:00:59;;;;;;;64.40;41.78;;;;;;;;;;5007278;28;20069;-74
2021/11/30 12:03:46;;;;;;;128.57;78.25;;;;;;;;;;4999786;28;20065;-74
2021/11/30 12:06:25;;;;;;;122.43;73.47;;;;;;;;;;5005701;28;21134;-75
2021/11/30 12:09:12;;;;;;;98.55;60.35;;;;;;;;;;5012107;28;20080;-76
2021/11/30 12:11:40;;;;;;;100.40;62.60;;;;;;;;;;5006242;28;20053;-76
2021/11/30 12:14:10;;;;;;;96.47;61.42;;;;;;;;;;5003544;28;20038;-76
2021/11/30 12:16:55;;;;;;;74.93;47.85;;;;;;;;;;5010881;28;20673;-76
2021/11/30 12:19:26;;;;;;;140.45;85.72;;;;;;;;;;5007848;28;20037;-75
2021/11/30 12:21:53;;;;;;;110.57;64.05;;;;;;;;;;5010850;28;20057;-74
2021/11/30 12:24:33;;;;;;;87.25;52.65;;;;;;;;;;4991118;28;20589;-74
2021/11/30 12:27:00;;;;;;;95.22;63.38;;;;;;;;;;5005002;28;22408;-74
2021/11/30 12:29:29;;;;;;;118.50;69.22;;;;;;;;;;5009227;28;20119;-74
2021/11/30 12:31:56;;;;;;;108.40;64.15;;;;;;;;;;5009204;28;20399;-73
2021/11/30 12:34:36;;;;;;;125.43;81.15;;;;;;;;;;5007867;28;20119;-76
2021/11/30 12:37:11;;;;;;;119.90;69.80;;;;;;;;;;5004907;28;21030;-74
2021/11/30 12:39:58;;;;;;;125.55;78.75;;;;;;;;;;5002926;28;20505;-76
2021/11/30 12:42:28;;;;;;;83.85;51.25;;;;;;;;;;4996776;28;20114;-74
2021/11/30 12:44:56;;;;;;;73.88;46.50;;;;;;;;;;4990634;28;20068;-73
2021/11/30 12:47:25;;;;;;;80.63;51.72;;;;;;;;;;5013555;28;20069;-74
2021/11/30 12:49:52;;;;;;;118.07;74.20;;;;;;;;;;5007458;28;20061;-73
2021/11/30 12:52:22;;;;;;;127.28;79.22;;;;;;;;;;5010525;28;20062;-74
2021/11/30 12:54:51;;;;;;;83.25;49.55;;;;;;;;;;5005210;28;20073;-74
2021/11/30 12:57:32;;;;;;;90.00;55.17;;;;;;;;;;5008413;28;20124;-73
2021/11/30 13:00:08;;;;;;;119.72;72.60;;;;;;;;;;4994739;28;21308;-75
2021/11/30 13:02:36;;;;;;;115.50;73.80;;;;;;;;;;4979668;28;20058;-76
2021/11/30 13:05:21;;;;;;;125.95;77.20;;;;;;;;;;4987553;28;20069;-75
2021/11/30 13:07:47;;;;;;;127.85;79.65;;;;;;;;;;4984874;28;20057;-75
2021/11/30 13:10:18;;;;;;;136.95;84.05;;;;;;;;;;4978240;28;20169;-75
2021/11/30 13:12:45;;;;;;;112.38;73.35;;;;;;;;;;4987063;28;20096;-75
2021/11/30 13:15:11;;;;;;;96.60;57.70;;;;;;;;;;4987322;28;20536;-75
2021/11/30 13:17:38;;;;;;;113.50;73.75;;;;;;;;;;4982899;28;20058;-73
2021/11/30 13:20:05;;;;;;;115.32;72.35;;;;;;;;;;4991186;28;20451;-75
2021/11/30 13:22:31;;;;;;;125.63;78.43;;;;;;;;;;4984321;28;20042;-72
2021/11/30 13:25:01;;;;;;;101.50;62.65;;;;;;;;;;4987801;28;20069;-74
2021/11/30 13:27:32;;;;;;;135.93;85.38;;;;;;;;;;4986927;28;20046;-74
2021/11/30 13:30:05;;;;;;;136.45;84.43;;;;;;;;;;4984830;28;20444;-75
2021/11/30 13:32:39;;;;;;;101.30;61.83;;;;;;;;;;4982689;28;20062;-73
2021/11/30 13:35:07;;;;;;;123.57;76.13;;;;;;;;;;4989402;28;20548;-75
2021/11/30 13:37:34;;;;;;;110.60;66.63;;;;;;;;;;4986689;28;20069;-74
2021/11/30 13:40:00;;;;;;;107.53;64.75;;;;;;;;;;4983326;28;20050;-74
2021/11/30 13:42:27;;;;;;;121.38;75.60;;;;;;;;;;4977492;28;20047;-73
2021/11/30 13:44:53;;;;;;;111.40;67.05;;;;;;;;;;4984197;28;20070;-74
2021/11/30 13:47:20;;;;;;;82.53;53.00;;;;;;;;;;4983976;28;20096;-73
2021/11/30 13:49:47;;;;;;;111.38;65.85;;;;;;;;;;4983239;28;20066;-73
2021/11/30 13:52:22;;;;;;;99.00;64.65;;;;;;;;;;4983616;28;20030;-74
2021/11/30 13:54:57;;;;;;;96.18;59.45;;;;;;;;;;4970424;28;20066;-76
2021/11/30 13:57:26;;;;;;;90.15;55.75;;;;;;;;;;4984644;28;20120;-74
2021/11/30 13:59:56;;;;;;;96.90;56.75;;;;;;;;;;4989972;28;20069;-73
2021/11/30 14:02:33;;;;;;;85.60;55.45;;;;;;;;;;4998966;28;20033;-73
2021/11/30 14:05:00;;;;;;;90.18;54.25;;;;;;;;;;5000424;28;21588;-74
2021/11/30 14:07:29;;;;;;;59.80;37.92;;;;;;;;;;5004075;28;20084;-73
2021/11/30 14:09:59;;;;;;;81.20;47.40;;;;;;;;;;5002333;28;20038;-74
2021/11/30 14:12:26;;;;;;;74.00;45.13;;;;;;;;;;5006180;28;20069;-74
2021/11/30 14:14:54;;;;;;;80.25;47.25;;;;;;;;;;5004667;28;20109;-74
2021/11/30 14:17:26;;;;;;;69.63;43.67;;;;;;;;;;5004925;28;20143;-73
2021/11/30 14:19:53;;;;;;;76.40;45.10;;;;;;;;;;5003591;28;20053;-73
2021/11/30 14:22:21;;;;;;;76.72;45.42;;;;;;;;;;5005301;28;20054;-73
2021/11/30 14:24:56;;;;;;;69.53;43.88;;;;;;;;;;5002605;28;20140;-73
2021/11/30 14:27:24;;;;;;;48.17;30.70;;;;;;;;;;5005568;28;20058;-74
2021/11/30 14:29:50;;;;;;;57.70;36.95;;;;;;;;;;5004363;28;20069;-74
2021/11/30 14:32:24;;;;;;;68.88;42.17;;;;;;;;;;5005215;28;20077;-74
2021/11/30 14:34:51;;;;;;;56.80;32.63;;;;;;;;;;4998428;28;20145;-74